Time;durP1;ratioP1;P1;durP2;ratioP2;P2;SDS_P1;SDS_P2;PMS_P1;PMS_P2;Temp;Humidity;BMP_temperature;BMP_pressure;BME280_temperature;BME280_humidity;BME280_pressure;Samples;Min_cycle;Max_cycle;Signal;HPM_P1;HPM_P2
2023/08/15 00:01:18;;;;;;;;;;;;;;;20.40;77.44;101139.06;5051446;28;1097;-72
2023/08/15 00:03:46;;;;;;;;;;;;;;;20.42;77.50;101137.91;5049940;28;1089;-72
2023/08/15 00:06:11;;;;;;;;;;;;;;;20.41;77.61;101131.00;5049664;28;1074;-71
2023/08/15 00:08:36;;;;;;;;;;;;;;;20.41;77.61;101125.75;5048596;28;1149;-72
2023/08/15 00:11:01;;;;;;;;;;;;;;;20.43;77.83;101118.47;5055289;28;1898;-71
2023/08/15 00:13:27;;;;;;;;;;;;;;;20.44;77.64;101119.28;5066806;28;1080;-72
2023/08/15 00:15:52;;;;;;;;;;;;;;;20.42;77.95;101118.66;5068586;28;1281;-72
2023/08/15 00:18:17;;;;;;;;;;;;;;;20.44;77.73;101114.00;5049207;28;1678;-73
2023/08/15 00:20:45;;;;;;;;;;;;;;;20.43;77.76;101113.19;5066549;28;1172;-72
2023/08/15 00:23:10;;;;;;;;;;;;;;;20.43;77.86;101102.66;5066764;28;1083;-72
2023/08/15 00:25:35;;;;;;;;;;;;;;;20.44;77.80;101111.38;5045530;28;1215;-74
2023/08/15 00:28:01;;;;;;;;;;;;;;;20.47;77.63;101113.66;5046802;28;1286;-72
2023/08/15 00:30:26;;;;;;;;;;;;;;;20.48;77.45;101112.69;5042716;28;1910;-72
2023/08/15 00:32:51;;;;;;;;;;;;;;;20.47;77.84;101108.38;5061145;28;1105;-73
2023/08/15 00:35:16;;;;;;;;;;;;;;;20.47;77.88;101108.38;5061810;28;1103;-72
2023/08/15 00:37:41;;;;;;;;;;;;;;;20.45;77.73;101113.00;5057148;28;1128;-73
2023/08/15 00:40:07;;;;;;;;;;;;;;;20.44;78.04;101111.38;5041820;28;1170;-73
2023/08/15 00:42:32;;;;;;;;;;;;;;;20.44;78.11;101121.91;5057506;28;1182;-72
2023/08/15 00:44:57;;;;;;;;;;;;;;;20.42;78.01;101126.56;5056429;28;1181;-72
2023/08/15 00:47:23;;;;;;;;;;;;;;;20.40;77.90;101124.09;5058260;28;997;-72
2023/08/15 00:49:49;;;;;;;;;;;;;;;20.34;77.79;101118.72;5056420;28;1985;-72
2023/08/15 00:52:15;;;;;;;;;;;;;;;20.29;78.33;101115.81;5057318;28;1138;-72
2023/08/15 00:54:45;;;;;;;;;;;;;;;20.24;78.41;101128.72;5053531;28;1115;-73
2023/08/15 00:57:11;;;;;;;;;;;;;;;20.17;78.66;101121.53;5053175;28;1094;-72
2023/08/15 00:59:36;;;;;;;;;;;;;;;20.12;78.92;101121.25;5052045;28;1142;-71
2023/08/15 01:02:02;;;;;;;;;;;;;;;20.08;79.36;101125.28;5051741;28;1126;-71
2023/08/15 01:04:28;;;;;;;;;;;;;;;20.06;79.57;101131.69;5051822;28;1054;-73
2023/08/15 01:06:53;;;;;;;;;;;;;;;20.02;79.34;101136.53;5031962;28;2114;-73
2023/08/15 01:09:18;;;;;;;;;;;;;;;19.99;79.25;101123.72;5050094;28;1967;-71
2023/08/15 01:11:49;;;;;;;;;;;;;;;19.95;79.41;101134.78;5050834;28;1099;-72
2023/08/15 01:14:17;;;;;;;;;;;;;;;19.89;79.77;101133.66;5050156;28;1152;-72
2023/08/15 01:16:43;;;;;;;;;;;;;;;19.85;79.78;101129.78;5049132;28;1134;-71
2023/08/15 01:19:28;;;;;;;;;;;;;;;19.78;79.75;101129.66;5062957;28;1087;-71
2023/08/15 01:21:55;;;;;;;;;;;;;;;19.72;80.16;101129.53;5052571;28;1217;-72
2023/08/15 01:24:20;;;;;;;;;;;;;;;19.68;80.63;101117.75;5067238;28;1052;-72
2023/08/15 01:26:46;;;;;;;;;;;;;;;19.63;80.61;101108.56;5046377;28;1247;-72
2023/08/15 01:29:11;;;;;;;;;;;;;;;19.60;80.71;101101.00;5064011;28;1910;-72
2023/08/15 01:31:42;;;;;;;;;;;;;;;19.57;81.06;101105.81;5042993;28;1168;-73
2023/08/15 01:34:16;;;;;;;;;;;;;;;19.53;81.07;101110.59;5051392;28;1056;-72
2023/08/15 01:36:44;;;;;;;;;;;;;;;19.46;81.20;101120.19;5059251;28;1028;-71
2023/08/15 01:39:12;;;;;;;;;;;;;;;19.43;81.39;101124.97;5050257;28;1045;-72
2023/08/15 01:41:39;;;;;;;;;;;;;;;19.38;81.64;101128.13;5039693;28;1288;-71
2023/08/15 01:44:06;;;;;;;;;;;;;;;19.35;81.72;101128.50;5058214;28;1106;-72
2023/08/15 01:46:31;;;;;;;;;;;;;;;19.34;81.69;101137.38;5057827;28;1190;-73
2023/08/15 01:48:59;;;;;;;;;;;;;;;19.29;82.02;101140.53;5054421;28;1898;-72
2023/08/15 01:51:24;;;;;;;;;;;;;;;19.27;82.08;101136.44;5057550;28;1194;-72
2023/08/15 01:53:49;;;;;;;;;;;;;;;19.23;82.47;101145.66;5034774;28;1207;-73
2023/08/15 01:56:14;;;;;;;;;;;;;;;19.21;82.62;101147.63;5035356;28;1174;-72
2023/08/15 01:58:39;;;;;;;;;;;;;;;19.18;83.17;101148.00;5054592;28;1004;-73
2023/08/15 02:01:05;;;;;;;;;;;;;;;19.16;82.92;101160.50;5052532;28;1169;-74
2023/08/15 02:03:30;;;;;;;;;;;;;;;19.20;83.26;101156.53;5048380;28;1122;-73
2023/08/15 02:05:55;;;;;;;;;;;;;;;19.19;83.02;101160.16;5051174;28;971;-72
2023/08/15 02:08:22;;;;;;;;;;;;;;;19.12;83.19;101153.94;5053092;28;1075;-71
2023/08/15 02:10:47;;;;;;;;;;;;;;;19.06;83.43;101161.53;5051555;28;1889;-72
2023/08/15 02:13:13;;;;;;;;;;;;;;;19.03;83.62;101161.84;5055019;28;967;-72
2023/08/15 02:15:38;;;;;;;;;;;;;;;19.01;83.50;101179.63;5054904;28;1074;-72
2023/08/15 02:18:03;;;;;;;;;;;;;;;18.98;83.43;101173.88;5052940;28;1137;-72
2023/08/15 02:20:28;;;;;;;;;;;;;;;18.94;83.66;101168.16;5051853;28;1210;-72
2023/08/15 02:22:54;;;;;;;;;;;;;;;18.91;83.76;101168.50;5055708;28;943;-72
2023/08/15 02:25:19;;;;;;;;;;;;;;;18.90;83.63;101185.25;5069450;28;1174;-72
2023/08/15 02:27:44;;;;;;;;;;;;;;;18.92;83.66;101199.03;5067265;28;1099;-72
2023/08/15 02:30:10;;;;;;;;;;;;;;;18.89;83.46;101211.72;5049903;28;1965;-71
2023/08/15 02:32:35;;;;;;;;;;;;;;;18.81;83.52;101215.22;5066854;28;1111;-72
2023/08/15 02:35:01;;;;;;;;;;;;;;;18.77;83.69;101211.28;5066876;28;1012;-73
2023/08/15 02:37:26;;;;;;;;;;;;;;;18.73;83.53;101207.34;5061146;28;1068;-71
2023/08/15 02:39:51;;;;;;;;;;;;;;;18.68;83.77;101201.75;5064768;28;1080;-74
2023/08/15 02:42:16;;;;;;;;;;;;;;;18.65;83.74;101209.97;5067374;28;1139;-72
2023/08/15 02:44:42;;;;;;;;;;;;;;;18.62;83.59;101205.03;5063487;28;1080;-72
2023/08/15 02:47:07;;;;;;;;;;;;;;;18.56;83.85;101196.84;5063362;28;1145;-72
2023/08/15 02:49:32;;;;;;;;;;;;;;;18.54;83.83;101198.81;5044778;28;1965;-71
2023/08/15 02:51:58;;;;;;;;;;;;;;;18.51;83.86;101199.16;5059621;28;1078;-71
2023/08/15 02:54:23;;;;;;;;;;;;;;;18.49;83.90;101201.13;5043512;28;1191;-75
2023/08/15 02:56:48;;;;;;;;;;;;;;;18.47;83.81;101203.13;5058756;28;1170;-72
2023/08/15 02:59:13;;;;;;;;;;;;;;;18.44;83.78;101203.44;5058561;28;1001;-72
2023/08/15 03:01:38;;;;;;;;;;;;;;;18.42;84.14;101205.41;5041093;28;1341;-72
2023/08/15 03:04:04;;;;;;;;;;;;;;;18.38;84.03;101206.72;5058421;28;1153;-72
2023/08/15 03:06:30;;;;;;;;;;;;;;;18.34;84.11;101197.53;5060036;28;1074;-72
2023/08/15 03:08:55;;;;;;;;;;;;;;;18.33;84.04;101190.66;5056746;28;1902;-71
2023/08/15 03:11:20;;;;;;;;;;;;;;;18.30;84.20;101196.25;5057051;28;1177;-72
2023/08/15 03:13:45;;;;;;;;;;;;;;;18.26;84.10;101195.75;5038956;28;1383;-72
2023/08/15 03:16:10;;;;;;;;;;;;;;;18.25;84.28;101190.69;5054145;28;1086;-73
2023/08/15 03:18:36;;;;;;;;;;;;;;;18.22;84.37;101198.88;5054300;28;1078;-73
2023/08/15 03:21:02;;;;;;;;;;;;;;;18.21;84.40;101207.75;5051713;28;1113;-73
2023/08/15 03:23:28;;;;;;;;;;;;;;;18.18;84.47;101202.81;5050304;28;1023;-72
2023/08/15 03:26:00;;;;;;;;;;;;;;;18.14;84.50;101201.50;5050636;28;1070;-72
2023/08/15 03:28:26;;;;;;;;;;;;;;;18.11;84.58;101191.31;5049498;28;1148;-72
2023/08/15 03:30:51;;;;;;;;;;;;;;;18.08;84.82;101187.25;5048721;28;1977;-72
2023/08/15 03:33:17;;;;;;;;;;;;;;;18.05;84.82;101192.81;5062847;28;1016;-72
2023/08/15 03:35:45;;;;;;;;;;;;;;;18.03;85.04;101177.22;5068420;28;1154;-72
2023/08/15 03:38:12;;;;;;;;;;;;;;;18.01;84.81;101187.09;5068567;28;1202;-71
2023/08/15 03:40:38;;;;;;;;;;;;;;;18.02;84.81;101193.97;5067104;28;1167;-72
2023/08/15 03:43:03;;;;;;;;;;;;;;;17.97;84.98;101192.81;5065584;28;1180;-72
2023/08/15 03:45:28;;;;;;;;;;;;;;;17.95;85.03;101203.50;5063955;28;1091;-73
2023/08/15 03:47:53;;;;;;;;;;;;;;;17.92;85.33;101201.19;5059834;28;965;-72
2023/08/15 03:50:18;;;;;;;;;;;;;;;17.87;85.45;101200.03;5037695;28;1968;-72
2023/08/15 03:52:44;;;;;;;;;;;;;;;17.86;85.47;101199.22;5060764;28;1087;-71
2023/08/15 03:55:09;;;;;;;;;;;;;;;17.82;85.71;101203.13;5058659;28;1153;-71
2023/08/15 03:57:34;;;;;;;;;;;;;;;17.80;85.69;101196.44;5060472;28;1056;-71
2023/08/15 03:59:59;;;;;;;;;;;;;;;17.76;85.93;101209.03;5040531;28;1507;-72
2023/08/15 04:02:24;;;;;;;;;;;;;;;17.70;85.95;101220.16;5042973;28;1185;-72
2023/08/15 04:04:49;;;;;;;;;;;;;;;17.64;86.14;101223.44;5059820;28;1099;-72
2023/08/15 04:07:15;;;;;;;;;;;;;;;17.61;86.44;101221.16;5039806;28;1114;-73
2023/08/15 04:09:40;;;;;;;;;;;;;;;17.55;86.48;101216.50;5060054;28;1921;-72
2023/08/15 04:12:05;;;;;;;;;;;;;;;17.53;86.91;101222.75;5034723;28;1130;-73
2023/08/15 04:14:30;;;;;;;;;;;;;;;17.48;86.61;101214.53;5038535;28;1169;-72
2023/08/15 04:16:56;;;;;;;;;;;;;;;17.45;86.78;101207.00;5054773;28;1083;-72
2023/08/15 04:19:21;;;;;;;;;;;;;;;17.41;87.03;101213.53;5052704;28;1113;-71
2023/08/15 04:21:46;;;;;;;;;;;;;;;17.39;87.06;101218.13;5035738;28;1284;-72
2023/08/15 04:24:11;;;;;;;;;;;;;;;17.38;87.26;101224.38;5051746;28;1156;-71
2023/08/15 04:26:36;;;;;;;;;;;;;;;17.37;87.42;101220.06;5051670;28;1094;-72
2023/08/15 04:29:02;;;;;;;;;;;;;;;17.33;87.40;101208.28;5050048;28;1965;-72
2023/08/15 04:31:27;;;;;;;;;;;;;;;17.32;87.62;101221.53;5050590;28;1116;-71
2023/08/15 04:33:52;;;;;;;;;;;;;;;17.30;87.60;101223.50;5050674;28;1160;-72
2023/08/15 04:36:18;;;;;;;;;;;;;;;17.28;87.92;101220.22;5049220;28;1137;-72
2023/08/15 04:38:43;;;;;;;;;;;;;;;17.28;87.80;101213.19;5065260;28;1104;-71
2023/08/15 04:41:08;;;;;;;;;;;;;;;17.27;88.18;101219.41;5066811;28;1125;-71
2023/08/15 04:43:33;;;;;;;;;;;;;;;17.25;88.29;101231.84;5066526;28;1072;-72
2023/08/15 04:45:58;;;;;;;;;;;;;;;17.23;88.61;101233.81;5064199;28;1140;-73
2023/08/15 04:48:24;;;;;;;;;;;;;;;17.21;88.70;101238.41;5064960;28;1103;-73
2023/08/15 04:50:49;;;;;;;;;;;;;;;17.20;88.84;101234.13;5063455;28;1967;-71
2023/08/15 04:53:14;;;;;;;;;;;;;;;17.20;88.97;101228.88;5062840;28;1106;-71
2023/08/15 04:55:39;;;;;;;;;;;;;;;17.18;89.14;101246.56;5064159;28;1016;-71
2023/08/15 04:58:04;;;;;;;;;;;;;;;17.16;89.79;101249.34;5061311;28;1135;-71
2023/08/15 05:00:31;;;;;;;;;;;;;;;17.15;89.42;101260.81;5046116;28;1291;-72
2023/08/15 05:02:56;;;;;;;;;;;;;;;17.16;89.50;101269.50;5061221;28;1091;-71
2023/08/15 05:05:22;;;;;;;;;;;;;;;17.14;89.70;101271.44;5042907;28;1164;-73
2023/08/15 05:07:47;;;;;;;;;;;;;;;17.14;90.02;101272.25;5060991;28;1131;-72
2023/08/15 05:10:12;;;;;;;;;;;;;;;17.15;90.29;101273.94;5057318;28;1906;-71
2023/08/15 05:12:37;;;;;;;;;;;;;;;17.16;90.03;101280.00;5041507;28;1285;-73
2023/08/15 05:15:07;;;;;;;;;;;;;;;17.18;89.99;101283.28;5037917;28;1348;-72
2023/08/15 05:17:32;;;;;;;;;;;;;;;17.22;90.08;101285.44;5055348;28;1090;-71
2023/08/15 05:19:58;;;;;;;;;;;;;;;17.24;89.93;101288.69;5054629;28;1103;-72
2023/08/15 05:22:23;;;;;;;;;;;;;;;17.18;90.00;101296.38;5052509;28;1106;-72
2023/08/15 05:24:48;;;;;;;;;;;;;;;17.16;90.06;101307.03;5054023;28;1090;-72
2023/08/15 05:27:14;;;;;;;;;;;;;;;17.15;90.15;101312.44;5032928;28;1369;-71
2023/08/15 05:29:43;;;;;;;;;;;;;;;17.15;90.36;101320.28;5035046;28;1902;-71
2023/08/15 05:32:09;;;;;;;;;;;;;;;17.17;90.22;101313.09;5051364;28;1127;-73
2023/08/15 05:34:34;;;;;;;;;;;;;;;17.18;90.76;101314.72;5051321;28;1185;-71
2023/08/15 05:36:59;;;;;;;;;;;;;;;17.20;90.71;101318.00;5049936;28;1094;-73
2023/08/15 05:39:24;;;;;;;;;;;;;;;17.21;90.80;101327.53;5049104;28;1145;-71
2023/08/15 05:41:49;;;;;;;;;;;;;;;17.22;90.71;101326.56;5030078;28;1143;-72
2023/08/15 05:44:15;;;;;;;;;;;;;;;17.22;91.06;101323.94;5047697;28;1149;-73
2023/08/15 05:46:40;;;;;;;;;;;;;;;17.25;91.41;101331.47;5055987;28;1087;-71
2023/08/15 05:49:05;;;;;;;;;;;;;;;17.24;91.59;101324.59;5068489;28;1973;-73
2023/08/15 05:51:30;;;;;;;;;;;;;;;17.28;91.98;101319.84;5069741;28;1250;-73
2023/08/15 05:53:55;;;;;;;;;;;;;;;17.31;91.90;101315.09;5069290;28;1139;-71
2023/08/15 05:56:21;;;;;;;;;;;;;;;17.36;92.77;101318.09;5068176;28;1042;-71
2023/08/15 05:58:46;;;;;;;;;;;;;;;17.41;92.33;101315.81;5068304;28;1115;-72
2023/08/15 06:01:11;;;;;;;;;;;;;;;17.46;92.44;101324.03;5065798;28;1143;-72
2023/08/15 06:03:36;;;;;;;;;;;;;;;17.51;92.74;101332.25;5067706;28;1158;-73
2023/08/15 06:06:02;;;;;;;;;;;;;;;17.61;92.56;101336.56;5065011;28;1127;-72
2023/08/15 06:08:27;;;;;;;;;;;;;;;17.67;92.63;101341.16;5064368;28;1078;-72
2023/08/15 06:10:52;;;;;;;;;;;;;;;17.71;92.43;101352.97;5063883;28;1926;-72
2023/08/15 06:13:17;;;;;;;;;;;;;;;17.74;92.35;101357.94;5060603;28;1134;-72
2023/08/15 06:15:42;;;;;;;;;;;;;;;17.77;91.96;101357.59;5063163;28;1134;-72
2023/08/15 06:18:07;;;;;;;;;;;;;;;17.81;92.04;101353.69;5059842;28;1135;-71
2023/08/15 06:20:33;;;;;;;;;;;;;;;17.84;92.46;101358.63;5059937;28;1098;-72
2023/08/15 06:22:58;;;;;;;;;;;;;;;17.89;92.79;101350.25;5060534;28;1079;-71
2023/08/15 06:25:23;;;;;;;;;;;;;;;17.95;92.99;101355.72;5039325;28;1383;-72
2023/08/15 06:27:48;;;;;;;;;;;;;;;18.01;92.54;101357.69;5058743;28;1158;-72
2023/08/15 06:30:14;;;;;;;;;;;;;;;18.08;93.15;101370.19;5055201;28;1977;-71
2023/08/15 06:32:39;;;;;;;;;;;;;;;18.11;92.52;101370.66;5054918;28;1138;-73
2023/08/15 06:35:05;;;;;;;;;;;;;;;18.18;92.74;101378.72;5036697;28;1223;-71
2023/08/15 06:37:31;;;;;;;;;;;;;;;18.25;92.84;101384.97;5052451;28;1003;-73
2023/08/15 06:39:56;;;;;;;;;;;;;;;18.31;93.14;101381.72;5035734;28;1206;-71
2023/08/15 06:42:21;;;;;;;;;;;;;;;18.38;93.28;101381.88;5052880;28;1074;-72
2023/08/15 06:44:46;;;;;;;;;;;;;;;18.44;93.06;101382.03;5051998;28;1113;-72
2023/08/15 06:47:11;;;;;;;;;;;;;;;18.52;92.80;101384.69;5051790;28;1192;-73
2023/08/15 06:49:37;;;;;;;;;;;;;;;18.62;92.75;101391.56;5052357;28;1902;-72
2023/08/15 06:52:03;;;;;;;;;;;;;;;18.71;92.75;101390.63;5042705;28;1394;-72
2023/08/15 06:54:28;;;;;;;;;;;;;;;18.80;92.69;101384.38;5070275;28;1083;-72
2023/08/15 06:56:53;;;;;;;;;;;;;;;18.86;92.74;101386.34;5070234;28;1143;-72
2023/08/15 06:59:20;;;;;;;;;;;;;;;18.92;92.42;101396.19;5049866;28;1456;-72
2023/08/15 07:01:45;;;;;;;;;;;;;;;18.97;92.54;101388.63;5068796;28;1024;-72
2023/08/15 07:04:11;;;;;;;;;;;;;;;19.01;92.13;101389.13;5065230;28;1115;-73
2023/08/15 07:06:37;;;;;;;;;;;;;;;19.05;92.26;101380.75;5047430;28;1292;-71
2023/08/15 07:09:03;;;;;;;;;;;;;;;19.15;92.00;101384.97;5064050;28;1131;-73
2023/08/15 07:11:28;;;;;;;;;;;;;;;19.24;92.14;101394.50;5062839;28;1874;-72
2023/08/15 07:13:53;;;;;;;;;;;;;;;19.31;91.80;101384.94;5045930;28;1242;-72
2023/08/15 07:16:18;;;;;;;;;;;;;;;19.39;91.56;101387.56;5060575;28;1239;-72
2023/08/15 07:18:43;;;;;;;;;;;;;;;19.46;91.47;101388.53;5062255;28;1049;-73
2023/08/15 07:21:08;;;;;;;;;;;;;;;19.52;91.25;101382.59;5061851;28;1139;-71
2023/08/15 07:23:34;;;;;;;;;;;;;;;19.56;90.76;101383.91;5060351;28;1101;-73
2023/08/15 07:25:59;;;;;;;;;;;;;;;19.60;90.68;101384.38;5060752;28;1095;-74
2023/08/15 07:28:24;;;;;;;;;;;;;;;19.68;90.78;101388.81;5056984;28;1164;-71
2023/08/15 07:30:49;;;;;;;;;;;;;;;19.75;90.43;101393.22;5039642;28;1906;-72
2023/08/15 07:33:15;;;;;;;;;;;;;;;19.84;90.11;101391.34;5055910;28;1084;-72
2023/08/15 07:35:41;;;;;;;;;;;;;;;19.94;89.76;101394.59;5054966;28;1168;-72
2023/08/15 07:38:06;;;;;;;;;;;;;;;20.06;89.45;101400.28;5055505;28;1150;-72
2023/08/15 07:40:32;;;;;;;;;;;;;;;20.12;89.68;101410.94;5053511;28;1095;-73
2023/08/15 07:42:57;;;;;;;;;;;;;;;20.23;89.20;101412.38;5054741;28;1152;-73
2023/08/15 07:45:22;;;;;;;;;;;;;;;20.30;88.94;101412.50;5053914;28;1127;-72
2023/08/15 07:47:56;;;;;;;;;;;;;;;20.33;88.56;101406.88;5052634;28;1078;-72
2023/08/15 07:50:26;;;;;;;;;;;;;;;20.36;88.31;101422.34;5051843;28;1902;-73
2023/08/15 07:52:52;;;;;;;;;;;;;;;20.38;88.03;101420.34;5049948;28;978;-72
2023/08/15 07:55:17;;;;;;;;;;;;;;;20.40;88.03;101423.63;5029826;28;1208;-72
2023/08/15 07:57:45;;;;;;;;;;;;;;;20.50;87.97;101424.25;5053099;28;1128;-72
2023/08/15 08:00:12;;;;;;;;;;;;;;;20.61;88.13;101415.94;5065972;28;1064;-72
2023/08/15 08:02:37;;;;;;;;;;;;;;;20.77;87.55;101422.09;5066050;28;1167;-74
2023/08/15 08:05:06;;;;;;;;;;;;;;;20.85;87.50;101416.72;5064797;28;1126;-73
2023/08/15 08:07:32;;;;;;;;;;;;;;;20.93;87.15;101427.19;5064497;28;1145;-73
2023/08/15 08:09:59;;;;;;;;;;;;;;;20.97;87.07;101428.50;5065032;28;1902;-72
2023/08/15 08:12:24;;;;;;;;;;;;;;;21.02;86.52;101423.50;5038142;28;1228;-72
2023/08/15 08:14:49;;;;;;;;;;;;;;;21.03;86.24;101433.03;5064606;28;1258;-72
2023/08/15 08:17:14;;;;;;;;;;;;;;;21.06;85.67;101432.69;5045095;28;1436;-75
2023/08/15 08:19:39;;;;;;;;;;;;;;;21.08;85.72;101435.97;5062921;28;1098;-73
2023/08/15 08:22:05;;;;;;;;;;;;;;;21.13;85.52;101441.53;5062179;28;1096;-72
2023/08/15 08:24:30;;;;;;;;;;;;;;;21.17;85.43;101437.53;5058985;28;1109;-73
2023/08/15 08:26:55;;;;;;;;;;;;;;;21.22;84.68;101439.66;5041495;28;1350;-72
2023/08/15 08:29:20;;;;;;;;;;;;;;;21.15;84.64;101450.06;5056037;28;1906;-73
2023/08/15 08:31:46;;;;;;;;;;;;;;;21.16;84.93;101457.00;5038142;28;1047;-72
2023/08/15 08:34:14;;;;;;;;;;;;;;;21.19;84.43;101456.63;5056295;28;1079;-74
2023/08/15 08:36:42;;;;;;;;;;;;;;;21.17;84.21;101458.66;5053731;28;1018;-73
2023/08/15 08:39:07;;;;;;;;;;;;;;;21.19;84.12;101467.19;5031955;28;1416;-72
2023/08/15 08:41:33;;;;;;;;;;;;;;;21.18;83.92;101457.66;5054903;28;1022;-72
2023/08/15 08:43:59;;;;;;;;;;;;;;;21.28;83.86;101459.22;5056322;28;1200;-75
2023/08/15 08:46:25;;;;;;;;;;;;;;;21.31;83.75;101458.88;5054794;28;1158;-72
2023/08/15 08:48:50;;;;;;;;;;;;;;;21.34;83.62;101459.34;5053386;28;1157;-74
2023/08/15 08:51:15;;;;;;;;;;;;;;;21.39;83.41;101456.13;5053912;28;1961;-72
2023/08/15 08:53:40;;;;;;;;;;;;;;;21.43;83.00;101455.59;5051823;28;1192;-72
2023/08/15 08:56:06;;;;;;;;;;;;;;;21.52;83.32;101452.91;5050682;28;1105;-73
2023/08/15 08:58:33;;;;;;;;;;;;;;;21.61;83.36;101455.25;5047273;28;1158;-72
2023/08/15 09:01:01;;;;;;;;;;;;;;;21.70;83.34;101462.06;5048748;28;1169;-73
2023/08/15 09:03:26;;;;;;;;;;;;;;;21.80;82.83;101463.63;5048119;28;1157;-73
2023/08/15 09:05:52;;;;;;;;;;;;;;;21.87;82.39;101469.81;5061963;28;1116;-73
2023/08/15 09:08:17;;;;;;;;;;;;;;;21.90;82.54;101469.44;5047467;28;1174;-73
2023/08/15 09:10:44;;;;;;;;;;;;;;;21.97;82.15;101465.06;5043549;28;1984;-73
2023/08/15 09:13:09;;;;;;;;;;;;;;;22.06;81.88;101458.66;5064045;28;1092;-73
2023/08/15 09:15:34;;;;;;;;;;;;;;;22.13;81.96;101470.16;5065664;28;1168;-75
2023/08/15 09:18:00;;;;;;;;;;;;;;;22.18;81.60;101462.50;5064603;28;1040;-73
2023/08/15 09:20:26;;;;;;;;;;;;;;;22.21;80.83;101471.88;5062484;28;1399;-73
2023/08/15 09:22:54;;;;;;;;;;;;;;;22.27;81.18;101471.97;5067019;28;1111;-72
2023/08/15 09:25:19;;;;;;;;;;;;;;;22.32;80.49;101479.34;5065194;28;1084;-75
2023/08/15 09:27:44;;;;;;;;;;;;;;;22.34;80.05;101482.59;5044411;28;1174;-73
2023/08/15 09:30:11;;;;;;;;;;;;;;;22.34;80.19;101487.06;5045017;28;1910;-73
2023/08/15 09:32:38;;;;;;;;;;;;;;;22.38;80.09;101493.63;5059532;28;1130;-73
2023/08/15 09:35:03;;;;;;;;;;;;;;;22.45;80.14;101489.22;5062586;28;1155;-73
2023/08/15 09:37:28;;;;;;;;;;;;;;;22.48;79.94;101500.25;5059876;28;1099;-73
2023/08/15 09:39:54;;;;;;;;;;;;;;;22.59;78.15;101498.91;5060871;28;1157;-72
2023/08/15 09:42:20;;;;;;;;;;;;;;;22.45;77.69;101499.81;5061892;28;1092;-72
2023/08/15 09:44:46;;;;;;;;;;;;;;;22.38;78.44;101504.19;5059500;28;1200;-73
2023/08/15 09:47:12;;;;;;;;;;;;;;;22.42;78.52;101500.16;5043382;28;1472;-74
2023/08/15 09:49:38;;;;;;;;;;;;;;;22.47;77.73;101500.41;5051944;28;1902;-72
2023/08/15 09:52:04;;;;;;;;;;;;;;;22.44;78.08;101503.44;5057526;28;1161;-73
2023/08/15 09:54:30;;;;;;;;;;;;;;;22.45;78.49;101500.63;5055348;28;1119;-74
2023/08/15 09:56:55;;;;;;;;;;;;;;;22.50;78.55;101505.34;5034644;28;2248;-74
2023/08/15 09:59:20;;;;;;;;;;;;;;;22.62;78.25;101498.56;5053373;28;1101;-73
2023/08/15 10:01:46;;;;;;;;;;;;;;;22.66;76.94;101505.13;5051882;28;1093;-73
2023/08/15 10:04:12;;;;;;;;;;;;;;;22.69;77.76;101504.72;5051988;28;1140;-73
2023/08/15 10:06:38;;;;;;;;;;;;;;;22.67;77.49;101511.22;5051211;28;1179;-72
2023/08/15 10:09:03;;;;;;;;;;;;;;;22.66;76.69;101507.75;5051788;28;1093;-73
2023/08/15 10:11:33;;;;;;;;;;;;;;;22.56;77.08;101512.53;5052406;28;1902;-72
2023/08/15 10:13:58;;;;;;;;;;;;;;;22.59;77.50;101511.31;5065515;28;1099;-74
2023/08/15 10:16:24;;;;;;;;;;;;;;;22.71;77.21;101526.53;5052127;28;1426;-73
2023/08/15 10:18:56;;;;;;;;;;;;;;;22.83;77.69;101523.38;5050694;28;1163;-73
2023/08/15 10:21:23;;;;;;;;;;;;;;;22.92;77.28;101527.56;5067279;28;1063;-73
2023/08/15 10:23:48;;;;;;;;;;;;;;;23.00;76.70;101532.75;5067591;28;1082;-73
2023/08/15 10:26:13;;;;;;;;;;;;;;;23.06;76.09;101534.63;5067504;28;1040;-72
2023/08/15 10:28:39;;;;;;;;;;;;;;;23.14;76.27;101534.47;5063843;28;1079;-73
2023/08/15 10:31:04;;;;;;;;;;;;;;;23.17;75.76;101534.13;5065754;28;1902;-73
2023/08/15 10:33:31;;;;;;;;;;;;;;;23.21;75.89;101538.00;5064149;28;1088;-73
2023/08/15 10:35:56;;;;;;;;;;;;;;;23.38;75.45;101532.44;5065229;28;1241;-73
2023/08/15 10:38:25;;;;;;;;;;;;;;;23.53;74.81;101535.81;5063792;28;1092;-73
2023/08/15 10:40:51;;;;;;;;;;;;;;;23.59;74.44;101529.72;5062765;28;1118;-72
2023/08/15 10:43:16;;;;;;;;;;;;;;;23.65;74.06;101538.75;5063610;28;1214;-73
2023/08/15 10:45:52;;;;;;;;;;;;;;;23.61;72.87;101538.28;5059715;28;1369;-73
2023/08/15 10:48:37;;;;;;;;;;;;;;;23.54;73.48;101542.72;5053975;28;1013;-74
2023/08/15 10:51:03;;;;;;;;;;;;;;;23.50;73.36;101544.13;5058338;28;1968;-73
2023/08/15 10:53:28;;;;;;;;;;;;;;;23.49;73.49;101539.84;5058101;28;1135;-72
2023/08/15 10:55:54;;;;;;;;;;;;;;;23.55;73.54;101541.72;5055023;28;1090;-73
2023/08/15 10:58:20;;;;;;;;;;;;;;;23.53;73.01;101546.41;5057044;28;1106;-74
2023/08/15 11:00:46;;;;;;;;;;;;;;;23.46;73.20;101545.53;5054528;28;1157;-72
2023/08/15 11:03:11;;;;;;;;;;;;;;;23.45;73.07;101549.16;5055962;28;1070;-73
2023/08/15 11:05:36;;;;;;;;;;;;;;;23.45;73.33;101549.16;5055910;28;1159;-74
2023/08/15 11:08:08;;;;;;;;;;;;;;;23.45;73.13;101549.97;5054376;28;1047;-72
2023/08/15 11:10:33;;;;;;;;;;;;;;;23.45;73.27;101549.16;5054525;28;1929;-73
2023/08/15 11:12:58;;;;;;;;;;;;;;;23.45;72.96;101549.16;5052231;28;1094;-73
2023/08/15 11:15:24;;;;;;;;;;;;;;;23.42;72.82;101536.34;5051152;28;999;-73
2023/08/15 11:17:49;;;;;;;;;;;;;;;23.39;73.17;101539.34;5050128;28;1102;-72
2023/08/15 11:20:14;;;;;;;;;;;;;;;23.40;72.89;101551.56;5056743;28;990;-72
2023/08/15 11:22:40;;;;;;;;;;;;;;;23.42;72.79;101545.09;5067985;28;1185;-73
2023/08/15 11:25:08;;;;;;;;;;;;;;;23.54;72.56;101553.31;5068317;28;1159;-74
2023/08/15 11:27:37;;;;;;;;;;;;;;;23.62;72.07;101550.53;5047626;28;1225;-73
2023/08/15 11:30:03;;;;;;;;;;;;;;;23.70;73.18;101545.13;5067632;28;1975;-74
2023/08/15 11:32:28;;;;;;;;;;;;;;;23.87;72.86;101552.75;5047920;28;1255;-73
2023/08/15 11:34:54;;;;;;;;;;;;;;;23.99;72.35;101553.84;5066133;28;1090;-73
2023/08/15 11:37:19;;;;;;;;;;;;;;;24.08;71.86;101555.28;5065914;28;1139;-73
2023/08/15 11:39:54;;;;;;;;;;;;;;;24.13;72.31;101558.19;5063214;28;1052;-73
2023/08/15 11:42:19;;;;;;;;;;;;;;;24.21;71.38;101555.38;5065105;28;1088;-73
2023/08/15 11:44:45;;;;;;;;;;;;;;;24.27;71.36;101559.06;5058854;28;1140;-72
2023/08/15 11:47:14;;;;;;;;;;;;;;;24.40;71.78;101564.44;5061616;28;1146;-74
2023/08/15 11:49:39;;;;;;;;;;;;;;;24.49;71.29;101562.47;5040987;28;1964;-73
2023/08/15 11:52:04;;;;;;;;;;;;;;;24.56;70.75;101568.59;5059008;28;1273;-73
2023/08/15 11:54:30;;;;;;;;;;;;;;;24.48;69.56;101555.50;5040027;28;1139;-73
2023/08/15 11:56:55;;;;;;;;;;;;;;;24.55;69.86;101561.66;5056539;28;1094;-73
2023/08/15 11:59:22;;;;;;;;;;;;;;;24.64;69.55;101561.25;5058625;28;1094;-72
2023/08/15 12:01:48;;;;;;;;;;;;;;;24.76;70.06;101564.16;5036384;28;1358;-73
2023/08/15 12:04:13;;;;;;;;;;;;;;;24.85;69.46;101562.94;5055720;28;1109;-72
2023/08/15 12:06:39;;;;;;;;;;;;;;;24.90;69.55;101571.13;5054384;28;1281;-74
2023/08/15 12:09:05;;;;;;;;;;;;;;;24.79;69.32;101579.69;5052618;28;1054;-73
2023/08/15 12:11:33;;;;;;;;;;;;;;;24.70;68.30;101580.06;5052541;28;1967;-73
2023/08/15 12:13:58;;;;;;;;;;;;;;;24.69;68.07;101571.28;5050675;28;1157;-72
2023/08/15 12:16:23;;;;;;;;;;;;;;;24.63;68.87;101569.44;5033708;28;1256;-74
2023/08/15 12:18:48;;;;;;;;;;;;;;;24.69;69.88;101568.63;5031781;28;1005;-73
2023/08/15 12:21:13;;;;;;;;;;;;;;;24.84;67.82;101566.63;5049643;28;1206;-73
2023/08/15 12:23:39;;;;;;;;;;;;;;;24.79;68.22;101558.44;5031443;28;1494;-72
2023/08/15 12:26:04;;;;;;;;;;;;;;;24.79;68.41;101561.09;5050188;28;1216;-73
2023/08/15 12:28:29;;;;;;;;;;;;;;;24.84;68.52;101550.72;5056422;28;1163;-75
2023/08/15 12:30:55;;;;;;;;;;;;;;;24.88;67.25;101557.22;5066538;28;1934;-73
2023/08/15 12:33:20;;;;;;;;;;;;;;;24.85;67.66;101552.34;5066730;28;1271;-73
2023/08/15 12:35:46;;;;;;;;;;;;;;;24.89;67.28;101550.94;5064007;28;1115;-72
2023/08/15 12:38:11;;;;;;;;;;;;;;;24.87;67.25;101544.97;5046040;28;1374;-72
2023/08/15 12:40:36;;;;;;;;;;;;;;;24.98;67.52;101550.72;5062470;28;1039;-73